sensor_id;sensor_type;location;lat;lon;timestamp;P1;durP1;ratioP1;P2;durP2;ratioP2
22064;SDS011;11197;53.110;8.468;2022-10-16T00:01:21;6.22;;;2.50;;
22064;SDS011;11197;53.110;8.468;2022-10-16T00:03:49;6.00;;;2.60;;
22064;SDS011;11197;53.110;8.468;2022-10-16T00:06:15;5.35;;;2.80;;
22064;SDS011;11197;53.110;8.468;2022-10-16T00:08:43;8.20;;;3.00;;
22064;SDS011;11197;53.110;8.468;2022-10-16T00:11:11;3.75;;;2.15;;
22064;SDS011;11197;53.110;8.468;2022-10-16T00:13:40;5.78;;;2.67;;
22064;SDS011;11197;53.110;8.468;2022-10-16T00:16:08;5.60;;;2.50;;
22064;SDS011;11197;53.110;8.468;2022-10-16T00:18:35;5.53;;;2.70;;
22064;SDS011;11197;53.110;8.468;2022-10-16T00:21:04;5.53;;;2.67;;
22064;SDS011;11197;53.110;8.468;2022-10-16T00:23:32;6.22;;;2.95;;
22064;SDS011;11197;53.110;8.468;2022-10-16T00:25:59;4.65;;;2.50;;
22064;SDS011;11197;53.110;8.468;2022-10-16T00:28:28;4.97;;;2.55;;
22064;SDS011;11197;53.110;8.468;2022-10-16T00:30:54;6.50;;;2.72;;
22064;SDS011;11197;53.110;8.468;2022-10-16T00:33:21;8.95;;;2.60;;
22064;SDS011;11197;53.110;8.468;2022-10-16T00:35:47;5.32;;;2.33;;
22064;SDS011;11197;53.110;8.468;2022-10-16T00:38:13;3.83;;;2.45;;
22064;SDS011;11197;53.110;8.468;2022-10-16T00:40:40;6.30;;;2.35;;
22064;SDS011;11197;53.110;8.468;2022-10-16T00:43:12;3.80;;;2.30;;
22064;SDS011;11197;53.110;8.468;2022-10-16T00:45:39;3.42;;;2.20;;
22064;SDS011;11197;53.110;8.468;2022-10-16T00:48:06;5.80;;;2.50;;
22064;SDS011;11197;53.110;8.468;2022-10-16T00:53:02;5.68;;;2.13;;
22064;SDS011;11197;53.110;8.468;2022-10-16T00:55:28;6.63;;;2.75;;
22064;SDS011;11197;53.110;8.468;2022-10-16T00:57:55;5.35;;;2.25;;
22064;SDS011;11197;53.110;8.468;2022-10-16T01:00:23;4.20;;;1.90;;
22064;SDS011;11197;53.110;8.468;2022-10-16T01:02:58;5.88;;;2.28;;
22064;SDS011;11197;53.110;8.468;2022-10-16T01:05:28;5.82;;;2.30;;
22064;SDS011;11197;53.110;8.468;2022-10-16T01:08:18;4.85;;;2.10;;
22064;SDS011;11197;53.110;8.468;2022-10-16T01:11:05;5.20;;;2.20;;
22064;SDS011;11197;53.110;8.468;2022-10-16T01:13:55;4.40;;;2.15;;
22064;SDS011;11197;53.110;8.468;2022-10-16T01:16:32;4.00;;;1.85;;
22064;SDS011;11197;53.110;8.468;2022-10-16T01:21:46;4.05;;;1.90;;
22064;SDS011;11197;53.110;8.468;2022-10-16T01:29:37;6.88;;;2.20;;
22064;SDS011;11197;53.110;8.468;2022-10-16T01:35:04;4.50;;;2.45;;
22064;SDS011;11197;53.110;8.468;2022-10-16T01:40:11;5.78;;;2.30;;
22064;SDS011;11197;53.110;8.468;2022-10-16T01:42:39;6.90;;;2.15;;
22064;SDS011;11197;53.110;8.468;2022-10-16T01:45:08;8.70;;;2.63;;
22064;SDS011;11197;53.110;8.468;2022-10-16T01:47:38;6.67;;;2.70;;
22064;SDS011;11197;53.110;8.468;2022-10-16T01:50:05;6.40;;;2.38;;
22064;SDS011;11197;53.110;8.468;2022-10-16T01:52:34;6.63;;;2.30;;
22064;SDS011;11197;53.110;8.468;2022-10-16T01:55:02;7.22;;;2.50;;
22064;SDS011;11197;53.110;8.468;2022-10-16T01:57:31;5.93;;;2.20;;
22064;SDS011;11197;53.110;8.468;2022-10-16T02:00:00;4.55;;;2.63;;
22064;SDS011;11197;53.110;8.468;2022-10-16T02:02:37;6.55;;;2.33;;
22064;SDS011;11197;53.110;8.468;2022-10-16T02:05:31;6.53;;;2.30;;
22064;SDS011;11197;53.110;8.468;2022-10-16T02:08:02;5.75;;;2.45;;
22064;SDS011;11197;53.110;8.468;2022-10-16T02:10:28;6.68;;;2.53;;
22064;SDS011;11197;53.110;8.468;2022-10-16T02:13:01;4.85;;;2.40;;
22064;SDS011;11197;53.110;8.468;2022-10-16T02:15:34;7.93;;;2.58;;
22064;SDS011;11197;53.110;8.468;2022-10-16T02:18:01;5.43;;;2.20;;
22064;SDS011;11197;53.110;8.468;2022-10-16T02:20:29;8.05;;;2.60;;
22064;SDS011;11197;53.110;8.468;2022-10-16T02:23:01;5.88;;;2.50;;
22064;SDS011;11197;53.110;8.468;2022-10-16T02:25:35;4.47;;;2.22;;
22064;SDS011;11197;53.110;8.468;2022-10-16T02:28:16;5.72;;;2.30;;
22064;SDS011;11197;53.110;8.468;2022-10-16T02:30:51;5.40;;;2.40;;
22064;SDS011;11197;53.110;8.468;2022-10-16T02:33:23;4.63;;;2.20;;
22064;SDS011;11197;53.110;8.468;2022-10-16T02:35:51;6.13;;;2.30;;
22064;SDS011;11197;53.110;8.468;2022-10-16T02:38:18;7.40;;;2.30;;
22064;SDS011;11197;53.110;8.468;2022-10-16T02:40:46;9.40;;;2.20;;
22064;SDS011;11197;53.110;8.468;2022-10-16T02:43:12;5.07;;;2.05;;
22064;SDS011;11197;53.110;8.468;2022-10-16T02:45:38;5.85;;;2.20;;
22064;SDS011;11197;53.110;8.468;2022-10-16T02:48:05;7.30;;;2.50;;
22064;SDS011;11197;53.110;8.468;2022-10-16T02:50:31;6.78;;;2.60;;
22064;SDS011;11197;53.110;8.468;2022-10-16T02:52:57;5.63;;;2.10;;
22064;SDS011;11197;53.110;8.468;2022-10-16T02:55:26;6.68;;;2.45;;
22064;SDS011;11197;53.110;8.468;2022-10-16T02:57:53;5.90;;;2.55;;
22064;SDS011;11197;53.110;8.468;2022-10-16T03:00:19;6.80;;;2.42;;
22064;SDS011;11197;53.110;8.468;2022-10-16T03:02:49;7.43;;;2.35;;
22064;SDS011;11197;53.110;8.468;2022-10-16T03:05:15;5.05;;;2.53;;
22064;SDS011;11197;53.110;8.468;2022-10-16T03:07:41;7.80;;;2.40;;
22064;SDS011;11197;53.110;8.468;2022-10-16T03:10:07;7.32;;;2.75;;
22064;SDS011;11197;53.110;8.468;2022-10-16T03:12:33;6.20;;;2.78;;
22064;SDS011;11197;53.110;8.468;2022-10-16T03:14:59;7.25;;;2.60;;
22064;SDS011;11197;53.110;8.468;2022-10-16T03:17:25;8.13;;;2.63;;
22064;SDS011;11197;53.110;8.468;2022-10-16T03:19:51;5.47;;;2.70;;
22064;SDS011;11197;53.110;8.468;2022-10-16T03:22:17;6.90;;;2.70;;
22064;SDS011;11197;53.110;8.468;2022-10-16T03:24:43;6.15;;;2.72;;
22064;SDS011;11197;53.110;8.468;2022-10-16T03:27:09;6.93;;;2.90;;
22064;SDS011;11197;53.110;8.468;2022-10-16T03:29:35;5.72;;;2.90;;
22064;SDS011;11197;53.110;8.468;2022-10-16T03:32:01;7.80;;;3.20;;
22064;SDS011;11197;53.110;8.468;2022-10-16T03:34:27;7.75;;;3.17;;
22064;SDS011;11197;53.110;8.468;2022-10-16T03:36:53;8.52;;;3.00;;
22064;SDS011;11197;53.110;8.468;2022-10-16T03:39:19;10.68;;;3.15;;
22064;SDS011;11197;53.110;8.468;2022-10-16T03:41:45;6.07;;;3.30;;
22064;SDS011;11197;53.110;8.468;2022-10-16T03:44:12;7.07;;;3.40;;
22064;SDS011;11197;53.110;8.468;2022-10-16T03:46:38;9.50;;;3.88;;
22064;SDS011;11197;53.110;8.468;2022-10-16T03:49:04;10.48;;;3.80;;
22064;SDS011;11197;53.110;8.468;2022-10-16T03:51:30;9.13;;;4.28;;
22064;SDS011;11197;53.110;8.468;2022-10-16T03:53:56;8.02;;;3.88;;
22064;SDS011;11197;53.110;8.468;2022-10-16T03:56:22;10.30;;;3.97;;
22064;SDS011;11197;53.110;8.468;2022-10-16T03:58:48;12.05;;;4.40;;
22064;SDS011;11197;53.110;8.468;2022-10-16T04:01:14;7.35;;;4.15;;
22064;SDS011;11197;53.110;8.468;2022-10-16T04:03:43;9.60;;;4.38;;
22064;SDS011;11197;53.110;8.468;2022-10-16T04:06:08;11.70;;;4.63;;
22064;SDS011;11197;53.110;8.468;2022-10-16T04:08:34;12.50;;;5.38;;
22064;SDS011;11197;53.110;8.468;2022-10-16T04:11:02;10.68;;;5.10;;
22064;SDS011;11197;53.110;8.468;2022-10-16T04:13:28;15.63;;;5.25;;
22064;SDS011;11197;53.110;8.468;2022-10-16T04:15:54;12.30;;;5.57;;
22064;SDS011;11197;53.110;8.468;2022-10-16T04:18:20;8.25;;;5.53;;
22064;SDS011;11197;53.110;8.468;2022-10-16T04:20:46;9.63;;;5.60;;
22064;SDS011;11197;53.110;8.468;2022-10-16T04:23:12;11.35;;;6.20;;
22064;SDS011;11197;53.110;8.468;2022-10-16T04:25:38;10.65;;;6.38;;
22064;SDS011;11197;53.110;8.468;2022-10-16T04:28:10;15.23;;;6.53;;
22064;SDS011;11197;53.110;8.468;2022-10-16T04:30:37;10.52;;;6.28;;
22064;SDS011;11197;53.110;8.468;2022-10-16T04:33:04;9.85;;;6.30;;
22064;SDS011;11197;53.110;8.468;2022-10-16T04:35:30;14.25;;;6.90;;
22064;SDS011;11197;53.110;8.468;2022-10-16T04:37:59;12.02;;;6.53;;
22064;SDS011;11197;53.110;8.468;2022-10-16T04:40:25;13.77;;;7.18;;
22064;SDS011;11197;53.110;8.468;2022-10-16T04:42:51;12.52;;;6.72;;
22064;SDS011;11197;53.110;8.468;2022-10-16T04:45:17;11.02;;;7.32;;
22064;SDS011;11197;53.110;8.468;2022-10-16T04:47:43;13.93;;;7.53;;
22064;SDS011;11197;53.110;8.468;2022-10-16T04:50:09;10.32;;;6.68;;
22064;SDS011;11197;53.110;8.468;2022-10-16T04:52:36;11.55;;;7.70;;
22064;SDS011;11197;53.110;8.468;2022-10-16T04:55:02;11.35;;;7.50;;
22064;SDS011;11197;53.110;8.468;2022-10-16T04:57:28;13.77;;;8.00;;
22064;SDS011;11197;53.110;8.468;2022-10-16T04:59:55;11.05;;;7.60;;
22064;SDS011;11197;53.110;8.468;2022-10-16T05:02:24;14.63;;;7.45;;
22064;SDS011;11197;53.110;8.468;2022-10-16T05:04:51;12.18;;;7.68;;
22064;SDS011;11197;53.110;8.468;2022-10-16T05:07:17;13.23;;;8.25;;
22064;SDS011;11197;53.110;8.468;2022-10-16T05:09:43;15.02;;;8.32;;
22064;SDS011;11197;53.110;8.468;2022-10-16T05:12:09;15.07;;;8.43;;
22064;SDS011;11197;53.110;8.468;2022-10-16T05:14:34;13.23;;;8.70;;
22064;SDS011;11197;53.110;8.468;2022-10-16T05:17:00;11.82;;;8.48;;
22064;SDS011;11197;53.110;8.468;2022-10-16T05:19:26;16.13;;;8.48;;
22064;SDS011;11197;53.110;8.468;2022-10-16T05:21:52;13.95;;;8.77;;
22064;SDS011;11197;53.110;8.468;2022-10-16T05:24:18;12.27;;;8.65;;
22064;SDS011;11197;53.110;8.468;2022-10-16T05:26:44;15.50;;;9.40;;
22064;SDS011;11197;53.110;8.468;2022-10-16T05:29:10;17.27;;;9.30;;
22064;SDS011;11197;53.110;8.468;2022-10-16T05:31:36;15.48;;;9.65;;
22064;SDS011;11197;53.110;8.468;2022-10-16T05:34:02;13.23;;;8.98;;
22064;SDS011;11197;53.110;8.468;2022-10-16T05:36:28;13.93;;;9.75;;
22064;SDS011;11197;53.110;8.468;2022-10-16T05:38:54;14.15;;;9.63;;
22064;SDS011;11197;53.110;8.468;2022-10-16T05:41:20;16.55;;;9.80;;
22064;SDS011;11197;53.110;8.468;2022-10-16T05:43:49;16.92;;;10.23;;
22064;SDS011;11197;53.110;8.468;2022-10-16T05:46:15;16.33;;;10.18;;
22064;SDS011;11197;53.110;8.468;2022-10-16T05:48:42;15.05;;;9.57;;
22064;SDS011;11197;53.110;8.468;2022-10-16T05:51:12;13.73;;;9.40;;
22064;SDS011;11197;53.110;8.468;2022-10-16T05:53:40;18.73;;;10.70;;
22064;SDS011;11197;53.110;8.468;2022-10-16T05:56:07;15.77;;;9.63;;
22064;SDS011;11197;53.110;8.468;2022-10-16T05:58:36;16.73;;;10.43;;
22064;SDS011;11197;53.110;8.468;2022-10-16T06:01:03;14.57;;;10.10;;
22064;SDS011;11197;53.110;8.468;2022-10-16T06:03:32;14.68;;;9.70;;
22064;SDS011;11197;53.110;8.468;2022-10-16T06:05:59;15.68;;;9.98;;
22064;SDS011;11197;53.110;8.468;2022-10-16T06:08:32;16.85;;;10.02;;
22064;SDS011;11197;53.110;8.468;2022-10-16T06:11:04;14.35;;;9.65;;
22064;SDS011;11197;53.110;8.468;2022-10-16T06:13:31;18.02;;;10.65;;
22064;SDS011;11197;53.110;8.468;2022-10-16T06:15:58;13.73;;;10.00;;
22064;SDS011;11197;53.110;8.468;2022-10-16T06:18:25;15.63;;;10.48;;
22064;SDS011;11197;53.110;8.468;2022-10-16T06:20:53;17.15;;;10.40;;
22064;SDS011;11197;53.110;8.468;2022-10-16T06:23:20;17.33;;;9.95;;
22064;SDS011;11197;53.110;8.468;2022-10-16T06:25:47;16.30;;;9.93;;
22064;SDS011;11197;53.110;8.468;2022-10-16T06:28:13;15.30;;;10.25;;
22064;SDS011;11197;53.110;8.468;2022-10-16T06:30:40;13.75;;;9.10;;
22064;SDS011;11197;53.110;8.468;2022-10-16T06:33:10;16.00;;;10.20;;
22064;SDS011;11197;53.110;8.468;2022-10-16T06:35:36;12.55;;;9.90;;
22064;SDS011;11197;53.110;8.468;2022-10-16T06:38:03;15.82;;;9.45;;
22064;SDS011;11197;53.110;8.468;2022-10-16T06:40:29;14.75;;;9.93;;
22064;SDS011;11197;53.110;8.468;2022-10-16T06:42:55;19.42;;;10.45;;
22064;SDS011;11197;53.110;8.468;2022-10-16T06:45:21;15.15;;;9.93;;
22064;SDS011;11197;53.110;8.468;2022-10-16T06:47:47;14.75;;;9.68;;
22064;SDS011;11197;53.110;8.468;2022-10-16T06:50:13;12.82;;;9.48;;
22064;SDS011;11197;53.110;8.468;2022-10-16T06:52:39;15.80;;;9.20;;
22064;SDS011;11197;53.110;8.468;2022-10-16T06:55:05;13.38;;;9.05;;
22064;SDS011;11197;53.110;8.468;2022-10-16T06:57:32;15.77;;;9.25;;
22064;SDS011;11197;53.110;8.468;2022-10-16T06:59:58;12.13;;;8.82;;
22064;SDS011;11197;53.110;8.468;2022-10-16T07:02:23;12.73;;;9.23;;
22064;SDS011;11197;53.110;8.468;2022-10-16T07:04:49;14.35;;;9.73;;
22064;SDS011;11197;53.110;8.468;2022-10-16T07:07:15;15.00;;;9.40;;
22064;SDS011;11197;53.110;8.468;2022-10-16T07:09:41;15.30;;;9.48;;
22064;SDS011;11197;53.110;8.468;2022-10-16T07:12:07;15.27;;;9.98;;
22064;SDS011;11197;53.110;8.468;2022-10-16T07:14:33;13.85;;;9.18;;
22064;SDS011;11197;53.110;8.468;2022-10-16T07:16:59;12.75;;;8.57;;
22064;SDS011;11197;53.110;8.468;2022-10-16T07:19:25;15.73;;;9.25;;
22064;SDS011;11197;53.110;8.468;2022-10-16T07:21:51;13.95;;;8.45;;
22064;SDS011;11197;53.110;8.468;2022-10-16T07:24:17;15.02;;;8.23;;
22064;SDS011;11197;53.110;8.468;2022-10-16T07:26:43;13.23;;;8.95;;
22064;SDS011;11197;53.110;8.468;2022-10-16T07:29:12;12.63;;;8.57;;
22064;SDS011;11197;53.110;8.468;2022-10-16T07:31:40;13.43;;;8.80;;
22064;SDS011;11197;53.110;8.468;2022-10-16T07:34:08;11.93;;;8.25;;
22064;SDS011;11197;53.110;8.468;2022-10-16T07:36:47;12.55;;;8.35;;
22064;SDS011;11197;53.110;8.468;2022-10-16T07:39:20;12.88;;;8.20;;
22064;SDS011;11197;53.110;8.468;2022-10-16T07:41:48;11.85;;;8.15;;
22064;SDS011;11197;53.110;8.468;2022-10-16T07:44:15;12.80;;;8.13;;
22064;SDS011;11197;53.110;8.468;2022-10-16T07:46:41;13.35;;;7.60;;
22064;SDS011;11197;53.110;8.468;2022-10-16T07:49:08;13.73;;;7.55;;
22064;SDS011;11197;53.110;8.468;2022-10-16T07:51:34;12.18;;;7.78;;
22064;SDS011;11197;53.110;8.468;2022-10-16T07:54:00;10.00;;;7.43;;
22064;SDS011;11197;53.110;8.468;2022-10-16T07:56:27;11.05;;;7.25;;
22064;SDS011;11197;53.110;8.468;2022-10-16T07:58:53;11.13;;;7.10;;
22064;SDS011;11197;53.110;8.468;2022-10-16T08:01:22;14.38;;;6.80;;
22064;SDS011;11197;53.110;8.468;2022-10-16T08:06:16;9.65;;;6.38;;
22064;SDS011;11197;53.110;8.468;2022-10-16T08:11:13;11.90;;;6.47;;
22064;SDS011;11197;53.110;8.468;2022-10-16T08:13:40;10.52;;;6.00;;
22064;SDS011;11197;53.110;8.468;2022-10-16T08:16:07;11.02;;;5.40;;
22064;SDS011;11197;53.110;8.468;2022-10-16T08:18:37;11.40;;;5.00;;
22064;SDS011;11197;53.110;8.468;2022-10-16T08:21:04;9.10;;;5.38;;
22064;SDS011;11197;53.110;8.468;2022-10-16T08:23:32;7.75;;;5.07;;
22064;SDS011;11197;53.110;8.468;2022-10-16T08:26:03;8.65;;;4.47;;
22064;SDS011;11197;53.110;8.468;2022-10-16T08:28:31;10.07;;;4.50;;
22064;SDS011;11197;53.110;8.468;2022-10-16T08:31:04;6.40;;;4.10;;
22064;SDS011;11197;53.110;8.468;2022-10-16T08:33:34;6.00;;;3.90;;
22064;SDS011;11197;53.110;8.468;2022-10-16T08:36:00;9.88;;;3.83;;
22064;SDS011;11197;53.110;8.468;2022-10-16T08:38:27;8.35;;;3.60;;
22064;SDS011;11197;53.110;8.468;2022-10-16T08:40:54;7.22;;;3.60;;
22064;SDS011;11197;53.110;8.468;2022-10-16T08:44:18;6.78;;;3.20;;
22064;SDS011;11197;53.110;8.468;2022-10-16T08:49:03;5.85;;;3.13;;
22064;SDS011;11197;53.110;8.468;2022-10-16T08:51:35;6.05;;;2.70;;
22064;SDS011;11197;53.110;8.468;2022-10-16T08:54:06;5.50;;;3.13;;
22064;SDS011;11197;53.110;8.468;2022-10-16T08:56:47;8.75;;;2.85;;
22064;SDS011;11197;53.110;8.468;2022-10-16T08:59:13;10.57;;;2.70;;
22064;SDS011;11197;53.110;8.468;2022-10-16T09:01:42;8.48;;;3.13;;
22064;SDS011;11197;53.110;8.468;2022-10-16T09:07:18;8.20;;;2.40;;
22064;SDS011;11197;53.110;8.468;2022-10-16T09:15:07;4.25;;;2.03;;
22064;SDS011;11197;53.110;8.468;2022-10-16T09:17:49;4.82;;;1.63;;
22064;SDS011;11197;53.110;8.468;2022-10-16T09:25:29;7.55;;;1.90;;
22064;SDS011;11197;53.110;8.468;2022-10-16T09:27:57;7.03;;;1.80;;
22064;SDS011;11197;53.110;8.468;2022-10-16T09:30:25;5.25;;;1.60;;
22064;SDS011;11197;53.110;8.468;2022-10-16T09:32:53;5.90;;;2.00;;
22064;SDS011;11197;53.110;8.468;2022-10-16T09:35:24;8.00;;;2.08;;
22064;SDS011;11197;53.110;8.468;2022-10-16T09:37:57;6.95;;;2.17;;
22064;SDS011;11197;53.110;8.468;2022-10-16T09:40:28;7.18;;;1.90;;
22064;SDS011;11197;53.110;8.468;2022-10-16T09:42:58;6.00;;;1.90;;
22064;SDS011;11197;53.110;8.468;2022-10-16T09:45:31;5.53;;;1.92;;
22064;SDS011;11197;53.110;8.468;2022-10-16T09:47:57;5.25;;;1.73;;
22064;SDS011;11197;53.110;8.468;2022-10-16T09:50:27;6.30;;;1.88;;
22064;SDS011;11197;53.110;8.468;2022-10-16T09:53:05;6.85;;;1.70;;
22064;SDS011;11197;53.110;8.468;2022-10-16T09:55:35;4.35;;;1.52;;
22064;SDS011;11197;53.110;8.468;2022-10-16T09:58:11;5.32;;;1.80;;
22064;SDS011;11197;53.110;8.468;2022-10-16T10:00:39;4.85;;;1.55;;
22064;SDS011;11197;53.110;8.468;2022-10-16T10:03:15;4.65;;;1.45;;
22064;SDS011;11197;53.110;8.468;2022-10-16T10:05:58;5.57;;;1.50;;
22064;SDS011;11197;53.110;8.468;2022-10-16T10:08:28;5.63;;;1.30;;
22064;SDS011;11197;53.110;8.468;2022-10-16T10:10:57;7.70;;;1.63;;
22064;SDS011;11197;53.110;8.468;2022-10-16T10:13:24;5.38;;;1.40;;
22064;SDS011;11197;53.110;8.468;2022-10-16T10:15:52;5.60;;;1.55;;
22064;SDS011;11197;53.110;8.468;2022-10-16T10:18:19;3.47;;;1.17;;
22064;SDS011;11197;53.110;8.468;2022-10-16T10:21:00;7.40;;;1.38;;
22064;SDS011;11197;53.110;8.468;2022-10-16T10:23:28;5.07;;;1.40;;
22064;SDS011;11197;53.110;8.468;2022-10-16T10:29:20;4.32;;;1.42;;
22064;SDS011;11197;53.110;8.468;2022-10-16T10:31:46;7.60;;;1.63;;
22064;SDS011;11197;53.110;8.468;2022-10-16T10:34:41;6.38;;;1.38;;
22064;SDS011;11197;53.110;8.468;2022-10-16T10:40:50;8.02;;;1.70;;
22064;SDS011;11197;53.110;8.468;2022-10-16T10:46:30;3.78;;;1.20;;
22064;SDS011;11197;53.110;8.468;2022-10-16T10:51:47;5.85;;;1.10;;
22064;SDS011;11197;53.110;8.468;2022-10-16T10:54:15;4.78;;;1.10;;
22064;SDS011;11197;53.110;8.468;2022-10-16T10:59:55;4.45;;;1.30;;
22064;SDS011;11197;53.110;8.468;2022-10-16T11:02:52;7.88;;;1.30;;
22064;SDS011;11197;53.110;8.468;2022-10-16T11:05:42;5.60;;;1.10;;
22064;SDS011;11197;53.110;8.468;2022-10-16T11:08:22;5.78;;;1.20;;
22064;SDS011;11197;53.110;8.468;2022-10-16T11:10:58;6.57;;;1.35;;
22064;SDS011;11197;53.110;8.468;2022-10-16T11:16:02;4.30;;;0.88;;
22064;SDS011;11197;53.110;8.468;2022-10-16T11:21:35;8.38;;;1.05;;
22064;SDS011;11197;53.110;8.468;2022-10-16T11:24:13;7.75;;;1.27;;
22064;SDS011;11197;53.110;8.468;2022-10-16T11:26:47;3.28;;;0.90;;
22064;SDS011;11197;53.110;8.468;2022-10-16T11:29:26;5.40;;;1.20;;
22064;SDS011;11197;53.110;8.468;2022-10-16T11:31:59;10.10;;;1.35;;
22064;SDS011;11197;53.110;8.468;2022-10-16T11:34:33;6.70;;;1.55;;
22064;SDS011;11197;53.110;8.468;2022-10-16T11:39:47;5.07;;;0.90;;
22064;SDS011;11197;53.110;8.468;2022-10-16T11:42:27;6.47;;;1.10;;
22064;SDS011;11197;53.110;8.468;2022-10-16T11:48:07;5.30;;;1.10;;
22064;SDS011;11197;53.110;8.468;2022-10-16T11:53:51;6.05;;;1.00;;
22064;SDS011;11197;53.110;8.468;2022-10-16T11:56:25;7.05;;;1.02;;
22064;SDS011;11197;53.110;8.468;2022-10-16T12:02:17;8.48;;;1.00;;
22064;SDS011;11197;53.110;8.468;2022-10-16T12:05:01;6.85;;;1.10;;
22064;SDS011;11197;53.110;8.468;2022-10-16T12:07:42;7.05;;;1.20;;
22064;SDS011;11197;53.110;8.468;2022-10-16T12:10:21;6.07;;;0.98;;
22064;SDS011;11197;53.110;8.468;2022-10-16T12:12:52;5.55;;;1.27;;
22064;SDS011;11197;53.110;8.468;2022-10-16T12:15:22;7.30;;;1.38;;
22064;SDS011;11197;53.110;8.468;2022-10-16T12:17:49;8.00;;;1.23;;
22064;SDS011;11197;53.110;8.468;2022-10-16T12:20:20;7.07;;;1.20;;
22064;SDS011;11197;53.110;8.468;2022-10-16T12:28:04;6.15;;;1.15;;
22064;SDS011;11197;53.110;8.468;2022-10-16T12:30:43;6.82;;;1.13;;
22064;SDS011;11197;53.110;8.468;2022-10-16T12:33:24;4.82;;;1.10;;
22064;SDS011;11197;53.110;8.468;2022-10-16T12:35:52;6.63;;;0.98;;
22064;SDS011;11197;53.110;8.468;2022-10-16T12:38:21;7.72;;;1.30;;
22064;SDS011;11197;53.110;8.468;2022-10-16T12:41:23;6.47;;;1.20;;
22064;SDS011;11197;53.110;8.468;2022-10-16T12:43:54;6.25;;;1.33;;
22064;SDS011;11197;53.110;8.468;2022-10-16T12:46:33;9.05;;;1.50;;
22064;SDS011;11197;53.110;8.468;2022-10-16T12:49:16;5.72;;;1.08;;
22064;SDS011;11197;53.110;8.468;2022-10-16T12:51:47;6.25;;;1.08;;
22064;SDS011;11197;53.110;8.468;2022-10-16T12:54:14;5.32;;;1.10;;
22064;SDS011;11197;53.110;8.468;2022-10-16T13:02:46;7.45;;;1.20;;
22064;SDS011;11197;53.110;8.468;2022-10-16T13:08:42;7.75;;;1.52;;
22064;SDS011;11197;53.110;8.468;2022-10-16T13:14:31;6.07;;;1.23;;
22064;SDS011;11197;53.110;8.468;2022-10-16T13:27:56;7.88;;;1.13;;
22064;SDS011;11197;53.110;8.468;2022-10-16T13:30:30;5.95;;;1.13;;
22064;SDS011;11197;53.110;8.468;2022-10-16T13:33:13;5.90;;;1.30;;
22064;SDS011;11197;53.110;8.468;2022-10-16T13:35:49;5.45;;;1.10;;
22064;SDS011;11197;53.110;8.468;2022-10-16T13:38:18;7.47;;;1.40;;
22064;SDS011;11197;53.110;8.468;2022-10-16T13:40:59;7.95;;;1.30;;
22064;SDS011;11197;53.110;8.468;2022-10-16T13:43:46;5.13;;;1.08;;
22064;SDS011;11197;53.110;8.468;2022-10-16T13:46:17;5.97;;;1.30;;
22064;SDS011;11197;53.110;8.468;2022-10-16T13:48:55;9.25;;;1.83;;
22064;SDS011;11197;53.110;8.468;2022-10-16T13:53:52;7.72;;;1.42;;
22064;SDS011;11197;53.110;8.468;2022-10-16T13:56:21;6.70;;;1.20;;
22064;SDS011;11197;53.110;8.468;2022-10-16T13:59:06;5.78;;;1.10;;
22064;SDS011;11197;53.110;8.468;2022-10-16T14:01:48;6.90;;;1.30;;
22064;SDS011;11197;53.110;8.468;2022-10-16T14:04:15;7.78;;;1.42;;
22064;SDS011;11197;53.110;8.468;2022-10-16T14:06:42;5.68;;;1.15;;
22064;SDS011;11197;53.110;8.468;2022-10-16T14:09:20;6.15;;;1.42;;
22064;SDS011;11197;53.110;8.468;2022-10-16T14:11:51;5.90;;;1.15;;
22064;SDS011;11197;53.110;8.468;2022-10-16T14:14:21;8.23;;;1.60;;
22064;SDS011;11197;53.110;8.468;2022-10-16T14:16:48;8.35;;;1.58;;
22064;SDS011;11197;53.110;8.468;2022-10-16T14:19:25;6.97;;;1.20;;
22064;SDS011;11197;53.110;8.468;2022-10-16T14:21:53;5.30;;;1.23;;
22064;SDS011;11197;53.110;8.468;2022-10-16T14:24:26;7.45;;;1.45;;
22064;SDS011;11197;53.110;8.468;2022-10-16T14:26:56;7.78;;;1.50;;
22064;SDS011;11197;53.110;8.468;2022-10-16T14:29:23;7.32;;;1.30;;
22064;SDS011;11197;53.110;8.468;2022-10-16T14:32:00;8.18;;;1.48;;
22064;SDS011;11197;53.110;8.468;2022-10-16T14:34:29;6.93;;;1.30;;
22064;SDS011;11197;53.110;8.468;2022-10-16T14:36:58;5.32;;;1.15;;
22064;SDS011;11197;53.110;8.468;2022-10-16T14:39:39;6.43;;;1.17;;
22064;SDS011;11197;53.110;8.468;2022-10-16T14:42:11;7.40;;;1.38;;
22064;SDS011;11197;53.110;8.468;2022-10-16T14:44:42;7.38;;;1.30;;
22064;SDS011;11197;53.110;8.468;2022-10-16T14:47:13;7.05;;;1.40;;
22064;SDS011;11197;53.110;8.468;2022-10-16T14:49:49;9.05;;;1.23;;
22064;SDS011;11197;53.110;8.468;2022-10-16T14:52:16;7.72;;;1.35;;
22064;SDS011;11197;53.110;8.468;2022-10-16T14:54:42;9.00;;;1.30;;
22064;SDS011;11197;53.110;8.468;2022-10-16T14:57:19;6.32;;;1.10;;
22064;SDS011;11197;53.110;8.468;2022-10-16T14:59:49;8.30;;;1.50;;
22064;SDS011;11197;53.110;8.468;2022-10-16T15:02:22;8.25;;;1.23;;
22064;SDS011;11197;53.110;8.468;2022-10-16T15:04:50;5.07;;;1.50;;
22064;SDS011;11197;53.110;8.468;2022-10-16T15:07:16;5.57;;;1.10;;
22064;SDS011;11197;53.110;8.468;2022-10-16T15:09:43;7.75;;;1.42;;
22064;SDS011;11197;53.110;8.468;2022-10-16T15:12:09;5.95;;;1.10;;
22064;SDS011;11197;53.110;8.468;2022-10-16T15:14:35;5.05;;;1.10;;
22064;SDS011;11197;53.110;8.468;2022-10-16T15:17:01;7.55;;;1.20;;
22064;SDS011;11197;53.110;8.468;2022-10-16T15:19:27;7.57;;;1.40;;
22064;SDS011;11197;53.110;8.468;2022-10-16T15:21:55;7.25;;;1.20;;
22064;SDS011;11197;53.110;8.468;2022-10-16T15:24:30;6.38;;;1.30;;
22064;SDS011;11197;53.110;8.468;2022-10-16T15:27:00;7.55;;;1.60;;
22064;SDS011;11197;53.110;8.468;2022-10-16T15:29:40;5.65;;;1.15;;
22064;SDS011;11197;53.110;8.468;2022-10-16T15:32:10;8.02;;;1.40;;
22064;SDS011;11197;53.110;8.468;2022-10-16T15:34:36;6.32;;;1.30;;
22064;SDS011;11197;53.110;8.468;2022-10-16T15:37:03;7.75;;;1.25;;
22064;SDS011;11197;53.110;8.468;2022-10-16T15:39:29;6.70;;;1.30;;
22064;SDS011;11197;53.110;8.468;2022-10-16T15:41:55;3.42;;;1.15;;
22064;SDS011;11197;53.110;8.468;2022-10-16T15:44:21;6.60;;;1.20;;
22064;SDS011;11197;53.110;8.468;2022-10-16T15:46:54;3.67;;;1.15;;
22064;SDS011;11197;53.110;8.468;2022-10-16T15:49:21;5.85;;;1.30;;
22064;SDS011;11197;53.110;8.468;2022-10-16T15:51:47;5.20;;;1.20;;
22064;SDS011;11197;53.110;8.468;2022-10-16T15:54:13;3.97;;;1.02;;
22064;SDS011;11197;53.110;8.468;2022-10-16T15:56:39;4.72;;;1.10;;
22064;SDS011;11197;53.110;8.468;2022-10-16T15:59:06;6.10;;;1.20;;
22064;SDS011;11197;53.110;8.468;2022-10-16T16:01:33;4.82;;;1.17;;
22064;SDS011;11197;53.110;8.468;2022-10-16T16:04:01;2.42;;;0.60;;
22064;SDS011;11197;53.110;8.468;2022-10-16T16:09:13;4.20;;;1.00;;
22064;SDS011;11197;53.110;8.468;2022-10-16T16:12:04;5.32;;;1.10;;
22064;SDS011;11197;53.110;8.468;2022-10-16T16:14:36;5.65;;;1.20;;
22064;SDS011;11197;53.110;8.468;2022-10-16T16:19:41;5.63;;;1.27;;
22064;SDS011;11197;53.110;8.468;2022-10-16T16:22:07;4.70;;;1.30;;
22064;SDS011;11197;53.110;8.468;2022-10-16T16:24:33;5.82;;;1.30;;
22064;SDS011;11197;53.110;8.468;2022-10-16T16:26:59;4.25;;;1.10;;
22064;SDS011;11197;53.110;8.468;2022-10-16T16:29:25;4.65;;;1.40;;
22064;SDS011;11197;53.110;8.468;2022-10-16T16:31:50;5.65;;;1.35;;
22064;SDS011;11197;53.110;8.468;2022-10-16T16:34:25;5.95;;;1.50;;
22064;SDS011;11197;53.110;8.468;2022-10-16T16:36:52;5.35;;;1.38;;
22064;SDS011;11197;53.110;8.468;2022-10-16T16:39:18;4.68;;;1.48;;
22064;SDS011;11197;53.110;8.468;2022-10-16T16:41:45;6.25;;;1.73;;
22064;SDS011;11197;53.110;8.468;2022-10-16T16:44:11;7.65;;;1.75;;
22064;SDS011;11197;53.110;8.468;2022-10-16T16:46:38;6.25;;;1.70;;